Time;durP1;ratioP1;P1;durP2;ratioP2;P2;SDS_P1;SDS_P2;PMS_P1;PMS_P2;Temp;Humidity;BMP_temperature;BMP_pressure;BME280_temperature;BME280_humidity;BME280_pressure;Samples;Min_cycle;Max_cycle;Signal;HPM_P1;HPM_P2
2023/04/18 00:00:42;;;;;;;29.77;14.30;;;;;;;11.39;92.37;102265.56;5030582;28;20053;-47
2023/04/18 00:03:09;;;;;;;29.65;13.48;;;;;;;11.39;92.48;102261.97;5029076;28;20058;-47
2023/04/18 00:05:36;;;;;;;27.83;13.93;;;;;;;11.40;92.53;102263.59;5029741;28;20067;-47
2023/04/18 00:08:04;;;;;;;33.60;15.10;;;;;;;11.40;92.67;102266.38;5030981;28;20076;-47
2023/04/18 00:10:31;;;;;;;27.73;14.23;;;;;;;11.37;92.88;102267.81;5029733;28;20179;-47
2023/04/18 00:13:00;;;;;;;26.13;13.90;;;;;;;11.37;92.90;102273.38;5013472;28;20128;-47
2023/04/18 00:15:28;;;;;;;29.70;16.15;;;;;;;11.34;92.93;102268.44;5031108;28;20052;-47
2023/04/18 00:17:59;;;;;;;30.83;14.98;;;;;;;11.36;93.18;102274.50;5029455;28;20439;-46
2023/04/18 00:20:26;;;;;;;33.92;15.68;;;;;;;11.34;93.32;102276.78;5030387;28;20049;-47
2023/04/18 00:22:54;;;;;;;28.90;14.68;;;;;;;11.33;93.38;102264.03;5030839;28;20084;-48
2023/04/18 00:25:21;;;;;;;31.92;16.42;;;;;;;11.36;93.38;102276.44;5029973;28;20049;-52
2023/04/18 00:27:48;;;;;;;27.27;14.30;;;;;;;11.34;93.39;102274.00;5013991;28;20554;-47
2023/04/18 00:30:15;;;;;;;32.40;14.75;;;;;;;11.33;93.50;102266.00;5032868;28;20056;-46
2023/04/18 00:32:41;;;;;;;27.50;14.32;;;;;;;11.31;93.47;102257.97;5029489;28;20053;-46
2023/04/18 00:35:08;;;;;;;31.92;14.60;;;;;;;11.28;93.37;102261.38;5029861;28;20068;-47
2023/04/18 00:37:36;;;;;;;33.13;15.63;;;;;;;11.22;93.67;102259.06;5030942;28;20041;-47
2023/04/18 00:40:04;;;;;;;39.38;16.30;;;;;;;11.22;93.85;102254.34;5030687;28;20060;-48
2023/04/18 00:42:31;;;;;;;32.67;15.57;;;;;;;11.22;93.75;102264.59;5028629;28;20045;-47
2023/04/18 00:44:58;;;;;;;31.13;15.48;;;;;;;11.18;93.80;102256.06;5029879;28;20406;-47
2023/04/18 00:47:25;;;;;;;33.40;14.30;;;;;;;11.14;93.81;102263.41;5031140;28;20053;-46
2023/04/18 00:49:52;;;;;;;38.08;15.75;;;;;;;11.13;93.79;102256.19;5029922;28;20041;-46
2023/04/18 00:52:19;;;;;;;38.00;16.50;;;;;;;11.11;93.89;102252.94;5036228;28;20102;-49
2023/04/18 00:54:46;;;;;;;43.58;17.15;;;;;;;11.08;93.90;102261.84;5031915;28;20034;-46
2023/04/18 00:57:13;;;;;;;48.20;17.33;;;;;;;11.00;93.75;102257.06;5027651;28;20266;-46
2023/04/18 00:59:41;;;;;;;47.15;18.58;;;;;;;10.93;93.73;102264.97;5029577;28;20499;-47
2023/04/18 01:02:08;;;;;;;43.00;16.88;;;;;;;10.86;94.06;102262.63;5028785;28;20089;-46
2023/04/18 01:04:36;;;;;;;36.22;14.02;;;;;;;10.82;94.17;102252.47;5028545;28;20091;-49
2023/04/18 01:07:03;;;;;;;40.25;15.73;;;;;;;10.81;94.29;102259.13;5030147;28;20045;-47
2023/04/18 01:09:31;;;;;;;36.28;15.18;;;;;;;10.81;94.27;102254.41;5029651;28;20777;-47
2023/04/18 01:12:00;;;;;;;31.27;13.48;;;;;;;10.81;94.44;102259.13;5029679;28;20049;-47
2023/04/18 01:14:27;;;;;;;33.08;13.43;;;;;;;10.82;94.47;102249.69;5028577;28;20068;-47
2023/04/18 01:16:53;;;;;;;36.08;14.50;;;;;;;10.80;94.63;102252.75;5027516;28;20523;-47
2023/04/18 01:19:21;;;;;;;31.85;13.38;;;;;;;10.80;94.64;102254.75;5028069;28;20510;-49
2023/04/18 01:21:48;;;;;;;34.42;15.15;;;;;;;10.80;94.80;102249.19;5030151;28;20050;-48
2023/04/18 01:24:16;;;;;;;32.83;15.15;;;;;;;10.80;94.92;102251.97;5029201;28;20160;-47
2023/04/18 01:26:48;;;;;;;35.08;14.02;;;;;;;10.79;95.04;102247.53;5029784;28;20239;-47
2023/04/18 01:29:15;;;;;;;34.40;13.85;;;;;;;10.76;95.01;102250.94;5028638;28;20427;-47
2023/04/18 01:31:41;;;;;;;39.60;15.75;;;;;;;10.73;95.03;102248.78;5034605;28;20049;-47
2023/04/18 01:34:08;;;;;;;40.17;16.83;;;;;;;10.73;95.13;102246.00;5016704;28;20411;-47
2023/04/18 01:36:37;;;;;;;41.22;18.80;;;;;;;10.71;95.34;102243.56;5029684;28;20049;-46
2023/04/18 01:39:06;;;;;;;53.58;18.88;;;;;;;10.71;95.29;102251.03;5029999;28;20049;-46
2023/04/18 01:41:32;;;;;;;43.85;18.58;;;;;;;10.68;95.36;102244.19;5028915;28;20047;-50
2023/04/18 01:43:59;;;;;;;53.55;19.55;;;;;;;10.66;95.41;102245.63;5027435;28;20041;-46
2023/04/18 01:46:27;;;;;;;53.08;18.48;;;;;;;10.63;95.76;102246.22;5029279;28;20037;-47
2023/04/18 01:48:55;;;;;;;58.63;20.52;;;;;;;10.59;95.86;102242.44;5029235;28;20072;-46
2023/04/18 01:51:22;;;;;;;55.53;22.02;;;;;;;10.59;95.98;102239.69;5028911;28;20053;-47
2023/04/18 01:53:49;;;;;;;53.88;19.60;;;;;;;10.58;96.19;102238.03;5026406;28;20038;-46
2023/04/18 01:56:16;;;;;;;58.63;20.10;;;;;;;10.60;96.19;102235.75;5029176;28;20049;-47
2023/04/18 01:58:42;;;;;;;59.40;20.00;;;;;;;10.62;96.39;102231.56;5026538;28;20053;-50
2023/04/18 02:01:09;;;;;;;78.88;22.80;;;;;;;10.62;96.36;102230.72;5028800;28;20121;-46
2023/04/18 02:03:36;;;;;;;77.35;22.00;;;;;;;10.61;96.36;102231.88;5029163;28;20045;-46
2023/04/18 02:06:04;;;;;;;103.28;23.33;;;;;;;10.55;96.62;102225.63;5027901;28;20048;-47
2023/04/18 02:08:34;;;;;;;87.32;24.77;;;;;;;10.50;96.69;102224.91;5029021;28;20056;-48
2023/04/18 02:11:01;;;;;;;88.07;23.25;;;;;;;10.47;96.83;102226.34;5029333;28;20508;-47
2023/04/18 02:13:28;;;;;;;97.43;22.38;;;;;;;10.47;97.10;102231.06;5026609;28;20610;-48
2023/04/18 02:15:54;;;;;;;78.07;22.90;;;;;;;10.45;97.13;102233.31;5029407;28;20083;-53
2023/04/18 02:18:23;;;;;;;99.65;23.15;;;;;;;10.46;97.37;102234.97;5029432;28;20213;-47
2023/04/18 02:20:50;;;;;;;132.43;22.40;;;;;;;10.43;97.52;102236.41;5027539;28;20095;-47
2023/04/18 02:23:18;;;;;;;106.65;23.55;;;;;;;10.41;97.59;102227.56;5028483;28;20046;-46
2023/04/18 02:25:45;;;;;;;89.88;22.90;;;;;;;10.41;97.73;102233.09;5011694;28;20041;-47
2023/04/18 02:28:12;;;;;;;130.00;23.15;;;;;;;10.42;97.88;102220.09;5028217;28;20669;-46
2023/04/18 02:30:38;;;;;;;124.55;24.58;;;;;;;10.40;97.84;102225.94;5035458;28;20491;-49
2023/04/18 02:33:05;;;;;;;105.47;22.10;;;;;;;10.38;97.82;102229.00;5028773;28;20050;-46
2023/04/18 02:35:32;;;;;;;101.15;23.50;;;;;;;10.40;98.21;102237.81;5027503;28;20065;-47
2023/04/18 02:37:59;;;;;;;87.78;23.17;;;;;;;10.42;98.11;102231.16;5025783;28;20472;-46
2023/04/18 02:40:26;;;;;;;78.07;21.52;;;;;;;10.47;98.42;102231.06;5028416;28;20060;-46
2023/04/18 02:42:52;;;;;;;66.20;22.70;;;;;;;10.48;98.34;102235.47;5028438;28;20054;-47
2023/04/18 02:45:19;;;;;;;85.60;21.85;;;;;;;10.49;98.54;102237.09;5029169;28;20408;-50
2023/04/18 02:47:46;;;;;;;91.10;24.75;;;;;;;10.47;98.57;102240.19;5022961;28;20557;-46
2023/04/18 02:50:21;;;;;;;75.25;22.65;;;;;;;10.49;98.88;102229.63;5014473;28;20414;-49
2023/04/18 02:52:48;;;;;;;62.13;19.30;;;;;;;10.51;98.79;102238.44;5029026;28;20136;-47
2023/04/18 02:55:15;;;;;;;68.55;20.75;;;;;;;10.52;99.04;102233.72;5028482;28;20045;-46
2023/04/18 02:57:41;;;;;;;69.45;20.77;;;;;;;10.54;99.00;102237.03;5026197;28;20056;-46
2023/04/18 03:00:09;;;;;;;63.60;20.63;;;;;;;10.56;99.13;102234.75;5028198;28;20523;-47
2023/04/18 03:02:35;;;;;;;62.70;20.63;;;;;;;10.56;99.16;102234.75;5077703;22;20053;-46
2023/04/18 03:05:02;;;;;;;64.82;20.75;;;;;;;10.57;99.17;102233.59;5047963;28;20107;-46
2023/04/18 03:07:30;;;;;;;60.13;19.38;;;;;;;10.59;99.60;102225.84;5045226;28;20037;-47
2023/04/18 03:09:56;;;;;;;67.07;19.75;;;;;;;10.60;99.47;102221.91;5051863;28;20036;-47
2023/04/18 03:12:23;;;;;;;64.53;19.73;;;;;;;10.58;99.25;102232.50;5052028;28;20059;-46
2023/04/18 03:14:50;;;;;;;61.63;20.52;;;;;;;10.61;99.59;102231.88;5051851;28;20123;-47
2023/04/18 03:17:17;;;;;;;64.95;22.50;;;;;;;10.64;99.58;102232.09;5050663;28;20405;-46
2023/04/18 03:19:45;;;;;;;68.95;21.35;;;;;;;10.68;99.77;102229.50;5059959;28;20044;-46
2023/04/18 03:22:13;;;;;;;61.10;21.38;;;;;;;10.73;99.72;102223.84;5056671;28;20048;-48
2023/04/18 03:24:39;;;;;;;60.45;23.15;;;;;;;10.71;99.34;102220.56;5050482;28;20477;-46
2023/04/18 03:27:06;;;;;;;62.50;21.42;;;;;;;10.68;99.40;102226.72;5051683;28;20491;-47
2023/04/18 03:29:33;;;;;;;59.25;21.42;;;;;;;10.64;99.38;102228.50;5054788;28;20486;-48
2023/04/18 03:32:00;;;;;;;53.08;19.83;;;;;;;10.62;99.33;102227.97;5037684;28;20498;-46
2023/04/18 03:34:27;;;;;;;60.08;21.13;;;;;;;10.62;99.63;102228.78;5050571;28;20048;-46
2023/04/18 03:36:55;;;;;;;66.00;21.60;;;;;;;10.61;99.76;102220.81;5051766;28;20053;-46
2023/04/18 03:39:22;;;;;;;54.97;20.90;;;;;;;10.60;99.80;102231.06;5051476;28;20165;-46
2023/04/18 03:41:51;;;;;;;65.75;22.40;;;;;;;10.58;99.74;102216.69;5051634;28;20135;-46
2023/04/18 03:44:17;;;;;;;70.22;23.63;;;;;;;10.57;99.72;102222.53;5051206;28;20037;-47
2023/04/18 03:46:44;;;;;;;66.88;22.17;;;;;;;10.57;99.69;102217.00;5050631;28;20145;-48
2023/04/18 03:49:11;;;;;;;68.13;23.85;;;;;;;10.55;99.68;102216.50;5051354;28;20069;-46
2023/04/18 03:51:44;;;;;;;61.28;21.42;;;;;;;10.52;99.77;102222.66;5051392;28;20493;-49
2023/04/18 03:54:11;;;;;;;60.80;22.10;;;;;;;10.50;99.63;102224.91;5060286;28;20055;-50
2023/04/18 03:56:39;;;;;;;57.83;22.63;;;;;;;10.49;99.93;102221.31;5049069;28;20375;-52
2023/04/18 03:59:05;;;;;;;57.97;22.92;;;;;;;10.52;100.00;102222.66;5051002;28;20087;-52
2023/04/18 04:01:32;;;;;;;59.58;22.33;;;;;;;10.51;100.00;102216.28;5050520;28;20049;-46
2023/04/18 04:04:00;;;;;;;61.42;23.05;;;;;;;10.53;100.00;102224.28;5050870;28;20049;-46
2023/04/18 04:06:27;;;;;;;62.47;19.63;;;;;;;10.49;100.00;102212.19;5051101;28;20136;-46
2023/04/18 04:08:54;;;;;;;70.13;22.80;;;;;;;10.46;100.00;102218.38;5051010;28;20059;-47
2023/04/18 04:11:21;;;;;;;67.47;24.17;;;;;;;10.44;100.00;102209.53;5051437;28;20083;-46
2023/04/18 04:13:48;;;;;;;63.40;21.73;;;;;;;10.43;100.00;102214.25;5049230;28;20080;-47
2023/04/18 04:16:15;;;;;;;58.55;22.65;;;;;;;10.48;100.00;102216.09;5050862;28;20391;-47
2023/04/18 04:18:42;;;;;;;63.10;23.27;;;;;;;10.50;100.00;102219.38;5047980;28;20057;-46
2023/04/18 04:21:09;;;;;;;50.40;21.15;;;;;;;10.51;100.00;102212.72;5050567;28;20099;-46
2023/04/18 04:23:36;;;;;;;63.67;22.27;;;;;;;10.53;100.00;102208.50;5050809;28;20383;-47
2023/04/18 04:26:03;;;;;;;57.30;20.75;;;;;;;10.52;100.00;102214.34;5050902;28;20051;-49
2023/04/18 04:28:30;;;;;;;60.15;21.92;;;;;;;10.52;100.00;102217.09;5051447;28;20044;-46
2023/04/18 04:30:58;;;;;;;60.03;22.40;;;;;;;10.53;100.00;102207.69;5057932;28;20128;-47
2023/04/18 04:33:27;;;;;;;56.30;22.85;;;;;;;10.53;100.00;102213.22;5050414;28;20053;-46
2023/04/18 04:35:55;;;;;;;55.30;21.45;;;;;;;10.53;100.00;102207.69;5032699;28;20053;-54
2023/04/18 04:38:21;;;;;;;58.28;22.23;;;;;;;10.54;100.00;102221.19;5049251;28;20715;-49
2023/04/18 04:40:48;;;;;;;57.92;23.13;;;;;;;10.52;100.00;102217.09;5050693;28;20048;-53
2023/04/18 04:43:16;;;;;;;59.70;21.00;;;;;;;10.51;100.00;102218.25;5050441;28;20051;-46
2023/04/18 04:45:43;;;;;;;58.42;22.50;;;;;;;10.48;100.00;102219.69;5051110;28;20443;-46
2023/04/18 04:48:10;;;;;;;53.28;21.10;;;;;;;10.48;100.00;102221.63;5050518;28;20091;-46
2023/04/18 04:50:39;;;;;;;55.97;21.67;;;;;;;10.47;100.00;102219.97;5050337;28;20045;-46
2023/04/18 04:53:07;;;;;;;58.60;22.30;;;;;;;10.43;100.00;102225.34;5032421;28;20056;-46
2023/04/18 04:55:34;;;;;;;48.45;19.73;;;;;;;10.40;100.00;102210.13;5050024;28;20055;-46
2023/04/18 04:58:01;;;;;;;58.22;21.90;;;;;;;10.38;100.00;102217.09;5050241;28;20511;-48
2023/04/18 05:00:28;;;;;;;52.90;21.88;;;;;;;10.34;100.00;102216.91;5049061;28;20053;-46
2023/04/18 05:02:57;;;;;;;50.05;20.83;;;;;;;10.32;100.00;102223.91;5050164;28;20147;-46
2023/04/18 05:05:24;;;;;;;56.85;20.70;;;;;;;10.29;100.00;102217.03;5049973;28;20067;-46
2023/04/18 05:07:51;;;;;;;57.47;21.88;;;;;;;10.29;100.00;102218.97;5032025;28;20052;-46
2023/04/18 05:10:18;;;;;;;64.45;22.50;;;;;;;10.29;100.00;102224.50;5049981;28;20045;-50
2023/04/18 05:12:44;;;;;;;54.70;21.15;;;;;;;10.28;100.00;102214.56;5049901;28;20045;-49
2023/04/18 05:15:12;;;;;;;56.42;22.15;;;;;;;10.27;100.00;102216.50;5049964;28;20136;-49
2023/04/18 05:17:38;;;;;;;51.92;21.85;;;;;;;10.24;100.00;102217.13;5049694;28;20056;-46
2023/04/18 05:20:05;;;;;;;60.80;26.23;;;;;;;10.23;100.00;102218.25;5050215;28;20402;-47
2023/04/18 05:22:32;;;;;;;52.05;22.05;;;;;;;10.21;100.00;102223.28;5048113;28;20044;-46
2023/04/18 05:24:59;;;;;;;51.08;21.60;;;;;;;10.19;100.00;102217.22;5049444;28;20494;-48
2023/04/18 05:27:26;;;;;;;59.10;24.30;;;;;;;10.18;100.00;102225.81;5049480;28;20049;-46
2023/04/18 05:29:53;;;;;;;76.85;26.33;;;;;;;10.16;100.00;102225.31;5054800;28;20390;-46
2023/04/18 05:32:20;;;;;;;49.03;22.52;;;;;;;10.15;100.00;102218.97;5049573;28;20048;-47
2023/04/18 05:34:47;;;;;;;55.08;26.15;;;;;;;10.12;100.00;102233.41;5049606;28;20045;-46
2023/04/18 05:37:14;;;;;;;58.72;24.15;;;;;;;10.10;100.00;102238.41;5048578;28;20045;-50
2023/04/18 05:39:41;;;;;;;60.90;23.88;;;;;;;10.09;100.00;102230.38;5048776;28;20450;-47
2023/04/18 05:42:07;;;;;;;53.00;22.85;;;;;;;10.10;100.00;102237.56;5049240;28;20049;-48
2023/04/18 05:44:34;;;;;;;57.53;25.35;;;;;;;10.07;100.00;102236.25;5049213;28;20049;-46
2023/04/18 05:47:04;;;;;;;57.55;24.55;;;;;;;10.08;100.00;102232.34;5048957;28;20059;-47
2023/04/18 05:49:31;;;;;;;60.25;24.77;;;;;;;10.08;100.00;102228.75;5031703;28;20045;-47
2023/04/18 05:51:58;;;;;;;64.68;25.52;;;;;;;10.06;100.00;102242.88;5049532;28;20033;-46
2023/04/18 05:54:25;;;;;;;53.25;24.10;;;;;;;10.06;100.00;102234.59;5050418;28;20156;-48
2023/04/18 05:56:52;;;;;;;50.72;22.58;;;;;;;10.09;100.00;102236.75;5049039;28;20044;-46
2023/04/18 05:59:22;;;;;;;52.90;24.30;;;;;;;10.11;100.00;102244.75;5047905;28;20057;-46
2023/04/18 06:01:48;;;;;;;58.38;25.45;;;;;;;10.12;100.00;102241.72;5048561;28;20498;-46
2023/04/18 06:04:15;;;;;;;63.60;25.77;;;;;;;10.11;100.00;102251.09;5048819;28;20051;-46
2023/04/18 06:06:43;;;;;;;67.07;25.33;;;;;;;10.11;100.00;102248.31;5048732;28;20063;-46
2023/04/18 06:09:12;;;;;;;53.45;23.95;;;;;;;10.13;100.00;102259.13;5046032;28;20051;-46
2023/04/18 06:11:38;;;;;;;57.78;25.10;;;;;;;10.13;100.00;102257.19;5048975;28;20495;-46
2023/04/18 06:14:05;;;;;;;53.45;24.40;;;;;;;10.15;100.00;102252.16;5048441;28;20064;-46
2023/04/18 06:16:31;;;;;;;58.25;25.55;;;;;;;10.19;100.00;102258.72;5048719;28;20045;-48
2023/04/18 06:18:58;;;;;;;61.83;26.40;;;;;;;10.21;100.00;102267.56;5048251;28;20048;-46
2023/04/18 06:21:27;;;;;;;61.05;24.48;;;;;;;10.24;100.00;102260.59;5047759;28;20053;-47
2023/04/18 06:23:53;;;;;;;49.22;24.75;;;;;;;10.27;100.00;102260.00;5046671;28;20041;-47
2023/04/18 06:26:20;;;;;;;56.47;24.38;;;;;;;10.31;100.00;102264.59;5048885;28;20069;-47
2023/04/18 06:28:47;;;;;;;62.70;24.40;;;;;;;10.36;100.00;102264.50;5048714;28;20095;-46
2023/04/18 06:31:13;;;;;;;66.18;26.88;;;;;;;10.39;100.00;102272.19;5065180;28;20509;-46
2023/04/18 06:33:40;;;;;;;59.35;25.63;;;;;;;10.43;100.00;102271.56;5056777;28;20045;-46
2023/04/18 06:36:07;;;;;;;65.80;27.35;;;;;;;10.46;100.00;102280.06;5048346;28;20048;-49
2023/04/18 06:38:34;;;;;;;58.05;27.17;;;;;;;10.48;100.00;102275.06;5048608;28;20041;-46
2023/04/18 06:41:02;;;;;;;69.05;27.10;;;;;;;10.52;100.00;102275.25;5048994;28;20036;-47
2023/04/18 06:43:29;;;;;;;58.25;26.50;;;;;;;10.56;100.00;102268.00;5053027;28;20606;-50
2023/04/18 06:45:55;;;;;;;54.55;24.95;;;;;;;10.61;100.00;102270.66;5034967;28;20052;-52
2023/04/18 06:48:22;;;;;;;49.50;26.25;;;;;;;10.66;100.00;102273.31;5053072;28;20371;-46
2023/04/18 06:50:49;;;;;;;49.15;25.88;;;;;;;10.68;100.00;102277.41;5051566;28;20132;-46
2023/04/18 06:53:16;;;;;;;45.47;24.95;;;;;;;10.71;100.00;102278.75;5058750;28;20363;-47
2023/04/18 06:55:42;;;;;;;46.72;26.65;;;;;;;10.76;100.00;102273.91;5072672;28;20084;-51
2023/04/18 06:58:12;;;;;;;48.53;22.88;;;;;;;10.82;100.00;102282.94;5072627;28;20044;-46
2023/04/18 07:00:39;;;;;;;45.42;24.25;;;;;;;10.86;100.00;102272.88;5064770;28;20406;-46
2023/04/18 07:03:08;;;;;;;47.45;24.95;;;;;;;10.90;100.00;102273.91;5051075;28;20049;-47
2023/04/18 07:05:38;;;;;;;33.93;21.47;;;;;;;10.91;100.00;102281.91;5051136;28;20505;-49
2023/04/18 07:08:05;;;;;;;39.80;22.40;;;;;;;10.92;100.00;102288.25;5051089;28;20086;-47
2023/04/18 07:10:31;;;;;;;41.05;23.13;;;;;;;10.94;100.00;102291.53;5051136;28;20128;-46
2023/04/18 07:12:58;;;;;;;42.55;22.52;;;;;;;10.98;100.00;102287.03;5051033;28;20402;-49
2023/04/18 07:15:25;;;;;;;31.77;20.13;;;;;;;10.99;100.00;102299.75;5032962;28;20143;-45
2023/04/18 07:17:52;;;;;;;43.00;22.40;;;;;;;10.99;100.00;102297.78;5049673;28;20045;-50
2023/04/18 07:20:19;;;;;;;39.10;23.25;;;;;;;10.91;100.00;102309.59;5046683;28;20051;-47
2023/04/18 07:22:46;;;;;;;36.25;21.67;;;;;;;10.79;100.00;102297.41;5050919;28;20068;-47
2023/04/18 07:25:13;;;;;;;45.63;23.10;;;;;;;10.75;100.00;102305.50;5032669;28;20056;-48
2023/04/18 07:27:40;;;;;;;37.25;23.13;;;;;;;10.75;100.00;102305.50;5050706;28;20045;-47
2023/04/18 07:30:08;;;;;;;42.72;22.98;;;;;;;10.79;100.00;102302.94;5050699;28;20518;-47
2023/04/18 07:32:34;;;;;;;40.83;22.30;;;;;;;10.80;100.00;102308.16;5050592;28;20041;-50
2023/04/18 07:35:03;;;;;;;40.47;22.75;;;;;;;10.83;100.00;102312.28;5051182;28;20057;-49
2023/04/18 07:37:30;;;;;;;42.25;22.95;;;;;;;10.81;99.84;102315.38;5050765;28;20055;-50
2023/04/18 07:39:57;;;;;;;37.53;22.15;;;;;;;10.78;99.44;102315.16;5049272;28;20440;-47
2023/04/18 07:42:24;;;;;;;46.40;22.67;;;;;;;10.76;99.29;102311.88;5047367;28;20061;-47
2023/04/18 07:44:56;;;;;;;47.90;21.33;;;;;;;10.81;99.17;102309.00;5031033;28;20080;-55
2023/04/18 07:47:24;;;;;;;38.40;20.67;;;;;;;10.97;99.27;102313.09;5030577;28;20049;-47
2023/04/18 07:49:54;;;;;;;36.25;18.92;;;;;;;11.12;99.17;102326.63;5031015;28;20050;-47
2023/04/18 07:52:20;;;;;;;33.58;18.50;;;;;;;11.21;98.68;102330.31;5045445;28;20051;-47
2023/04/18 07:54:47;;;;;;;35.95;18.20;;;;;;;11.22;98.09;102325.59;5056004;28;20052;-49
2023/04/18 07:57:14;;;;;;;46.47;19.80;;;;;;;11.28;98.40;102325.16;5032102;28;20499;-49
2023/04/18 07:59:41;;;;;;;30.25;17.98;;;;;;;11.34;98.05;102337.78;5050091;28;20450;-51
2023/04/18 08:02:07;;;;;;;30.58;15.65;;;;;;;11.44;98.21;102326.44;5006981;28;1224535;-47
2023/04/18 08:04:35;;;;;;;39.72;17.42;;;;;;;11.53;98.02;102344.00;5052778;28;20067;-53
2023/04/18 08:07:02;;;;;;;38.08;19.42;;;;;;;11.70;98.24;102332.25;5049793;28;20148;-47
2023/04/18 08:09:29;;;;;;;43.55;18.98;;;;;;;11.82;98.13;102328.91;5047677;28;20462;-50
2023/04/18 08:11:58;;;;;;;30.58;18.08;;;;;;;11.78;97.46;102336.25;5025550;28;20431;-50
2023/04/18 08:14:24;;;;;;;41.33;19.95;;;;;;;11.67;97.05;102337.56;5026386;28;20045;-48
2023/04/18 08:16:51;;;;;;;44.20;21.45;;;;;;;11.59;97.02;102339.16;5026214;28;20049;-54
2023/04/18 08:19:18;;;;;;;34.47;20.55;;;;;;;11.69;98.19;102340.88;5025865;28;20053;-55
2023/04/18 08:21:45;;;;;;;42.05;18.67;;;;;;;11.85;98.26;102340.22;5024035;28;20052;-49
2023/04/18 08:24:11;;;;;;;40.63;19.60;;;;;;;11.99;98.44;102340.94;5024109;28;20053;-54
2023/04/18 08:26:38;;;;;;;44.42;21.00;;;;;;;12.20;99.35;102339.28;5023114;28;20055;-52
2023/04/18 08:29:05;;;;;;;36.85;20.77;;;;;;;12.41;99.80;102341.53;5006842;28;20053;-50
2023/04/18 08:31:32;;;;;;;46.63;20.33;;;;;;;12.52;99.58;102348.47;5031349;28;20048;-53
2023/04/18 08:33:58;;;;;;;50.88;20.33;;;;;;;12.79;100.00;102337.94;5030013;28;20082;-49
2023/04/18 08:36:26;;;;;;;47.72;20.08;;;;;;;13.17;99.98;102343.00;5012379;28;20061;-50
2023/04/18 08:38:53;;;;;;;39.28;20.02;;;;;;;13.64;99.81;102342.06;5013182;28;20045;-54
2023/04/18 08:41:23;;;;;;;37.67;19.40;;;;;;;14.23;98.42;102342.34;5028770;28;20716;-50
2023/04/18 08:43:50;;;;;;;40.50;21.70;;;;;;;14.91;96.99;102346.88;5030529;28;20574;-48
2023/04/18 08:46:18;;;;;;;41.35;17.63;;;;;;;15.49;94.44;102351.66;5030206;28;20064;-49
2023/04/18 08:48:48;;;;;;;38.28;21.73;;;;;;;15.86;90.94;102352.69;5030411;28;20453;-51
2023/04/18 08:51:16;;;;;;;38.45;20.15;;;;;;;16.15;88.89;102355.34;5029057;28;20053;-48
2023/04/18 08:53:43;;;;;;;41.10;21.88;;;;;;;16.41;85.89;102362.28;5025187;28;20110;-48
2023/04/18 08:56:13;;;;;;;41.05;21.42;;;;;;;16.25;83.96;102357.72;5028636;28;20080;-48
2023/04/18 08:58:40;;;;;;;28.70;19.85;;;;;;;16.53;82.75;102363.50;5031142;28;20052;-50
2023/04/18 09:01:07;;;;;;;35.38;19.95;;;;;;;16.85;80.83;102355.06;5029194;28;20061;-44
2023/04/18 09:03:39;;;;;;;36.13;18.65;;;;;;;17.17;79.68;102356.09;5030036;28;20131;-50
2023/04/18 09:06:12;;;;;;;;;;;;;;;17.37;80.89;102343.94;5030210;28;20113;-46
2023/04/18 09:08:53;;;;;;;39.95;19.83;;;;;;;17.58;77.94;102355.81;5028407;28;20063;-56
2023/04/18 09:11:30;;;;;;;28.92;18.55;;;;;;;17.20;76.92;102341.41;5029198;28;20052;-50
2023/04/18 09:13:57;;;;;;;28.52;19.15;;;;;;;17.08;75.32;102346.22;5027874;28;20587;-50
2023/04/18 09:16:26;;;;;;;36.75;17.67;;;;;;;16.75;74.04;102338.75;5010356;28;20052;-49
2023/04/18 09:19:16;;;;;;;32.97;19.48;;;;;;;16.39;74.77;102341.44;5028913;28;20155;-53
2023/04/18 09:21:59;;;;;;;30.60;18.95;;;;;;;15.94;74.12;102335.81;5026690;28;20076;-47
2023/04/18 09:24:27;;;;;;;33.60;18.45;;;;;;;15.80;72.96;102338.09;5029518;28;20057;-52
2023/04/18 09:26:58;;;;;;;29.15;16.15;;;;;;;15.72;72.52;102339.00;5029264;28;20088;-54
2023/04/18 09:29:48;;;;;;;25.23;17.90;;;;;;;16.34;72.61;102339.69;5028413;28;20041;-53
2023/04/18 09:32:19;;;;;;;31.20;15.85;;;;;;;17.16;70.11;102334.88;5028904;28;20457;-47
2023/04/18 09:34:47;;;;;;;35.38;17.17;;;;;;;17.48;68.92;102333.88;5029813;28;20115;-49
2023/04/18 09:37:14;;;;;;;26.15;14.80;;;;;;;17.68;68.02;102340.53;5028427;28;20036;-55
2023/04/18 09:39:43;;;;;;;22.75;14.15;;;;;;;18.02;67.24;102336.31;5028345;28;20064;-48
2023/04/18 09:42:10;;;;;;;22.90;16.42;;;;;;;18.08;66.56;102340.50;5028433;28;20625;-50
2023/04/18 09:44:38;;;;;;;25.20;13.25;;;;;;;18.38;65.44;102350.13;5025540;28;20047;-49
2023/04/18 09:47:06;;;;;;;29.70;13.40;;;;;;;18.17;64.49;102344.75;5026386;28;20048;-51
2023/04/18 09:49:34;;;;;;;27.13;14.25;;;;;;;17.83;63.34;102339.78;5028681;28;20049;-50
2023/04/18 09:52:05;;;;;;;23.33;13.55;;;;;;;17.71;63.25;102336.19;5010690;28;20049;-55
2023/04/18 09:54:37;;;;;;;24.05;14.10;;;;;;;18.09;61.75;102336.50;5021060;28;20057;-51
2023/04/18 09:57:10;;;;;;;22.45;12.48;;;;;;;18.45;60.75;102355.94;5021937;28;20558;-50
2023/04/18 09:59:49;;;;;;;21.27;13.70;;;;;;;18.76;60.03;102344.78;5002405;28;20250;-54
2023/04/18 10:02:21;;;;;;;25.30;13.88;;;;;;;18.82;58.65;102350.94;5019112;28;20056;-48
2023/04/18 10:04:52;;;;;;;26.48;12.77;;;;;;;18.91;58.12;102342.31;5020858;28;20585;-51
2023/04/18 10:07:19;;;;;;;17.77;12.68;;;;;;;18.81;56.78;102357.72;5021710;28;20106;-52
2023/04/18 10:09:48;;;;;;;29.23;13.40;;;;;;;18.70;56.35;102356.63;5019302;28;20131;-53
2023/04/18 10:12:17;;;;;;;24.77;12.98;;;;;;;18.82;56.15;102353.72;5020852;28;20052;-52
2023/04/18 10:14:44;;;;;;;23.65;11.13;;;;;;;18.74;55.38;102352.72;5027819;28;20190;-49
2023/04/18 10:17:13;;;;;;;22.45;12.27;;;;;;;17.78;55.20;102359.63;5010122;28;20187;-51
2023/04/18 10:19:43;;;;;;;22.63;12.10;;;;;;;16.74;57.20;102350.25;5008810;28;20751;-51
2023/04/18 10:22:11;;;;;;;23.42;12.88;;;;;;;16.10;58.55;102338.78;5038866;28;20044;-47
2023/04/18 10:24:52;;;;;;;19.20;11.85;;;;;;;16.44;58.86;102350.41;5040533;28;20045;-48
2023/04/18 10:27:48;;;;;;;26.17;12.20;;;;;;;16.82;58.04;102347.34;5039675;28;20057;-46
2023/04/18 10:30:16;;;;;;;22.30;12.05;;;;;;;16.60;57.84;102341.41;5040016;28;20132;-48
2023/04/18 10:32:45;;;;;;;24.20;13.50;;;;;;;16.58;57.77;102338.94;5040833;28;20055;-50
2023/04/18 10:35:12;;;;;;;26.50;12.10;;;;;;;16.49;57.35;102329.00;5039762;28;20699;-52
2023/04/18 10:37:57;;;;;;;24.67;11.77;;;;;;;16.45;57.66;102328.88;5040774;28;20593;-49
2023/04/18 10:40:34;;;;;;;16.13;10.05;;;;;;;16.88;56.98;102331.97;5040158;28;20064;-48
2023/04/18 10:43:00;;;;;;;19.83;10.68;;;;;;;17.21;56.20;102334.63;5039090;28;20132;-48
2023/04/18 10:45:30;;;;;;;23.77;10.93;;;;;;;17.52;55.83;102332.03;5039021;28;20060;-51
2023/04/18 10:48:28;;;;;;;24.55;12.40;;;;;;;17.31;55.80;102322.97;5039859;28;20116;-49
2023/04/18 10:51:15;;;;;;;20.50;11.05;;;;;;;17.02;56.03;102335.22;5040398;28;20044;-46
2023/04/18 10:53:51;;;;;;;19.73;11.02;;;;;;;16.57;56.50;102330.91;5040251;28;20037;-48
2023/04/18 10:56:18;;;;;;;17.02;9.95;;;;;;;16.40;57.24;102335.50;5038561;28;20045;-49
2023/04/18 10:58:51;;;;;;;24.50;11.88;;;;;;;16.16;57.93;102343.81;5040030;28;20565;-50
2023/04/18 11:01:28;;;;;;;19.80;11.88;;;;;;;15.76;58.57;102345.50;5039278;28;20057;-47
2023/04/18 11:03:59;;;;;;;20.33;10.07;;;;;;;15.45;59.30;102350.66;5040776;28;20049;-48
2023/04/18 11:06:27;;;;;;;21.05;11.68;;;;;;;15.05;59.69;102341.88;5040046;28;20140;-49
2023/04/18 11:09:11;;;;;;;26.40;12.20;;;;;;;14.67;60.57;102344.69;5039821;28;20045;-50
2023/04/18 11:11:38;;;;;;;20.00;11.55;;;;;;;14.48;61.01;102344.28;5039897;28;20056;-51